sensor_id;sensor_type;location;lat;lon;timestamp;temperature;humidity
35613;DHT22;22054;51.646;7.078;2022-09-09T00:02:01;15.60;99.90
35613;DHT22;22054;51.646;7.078;2022-09-09T00:04:35;15.40;99.90
35613;DHT22;22054;51.646;7.078;2022-09-09T00:08:03;15.50;99.90
35613;DHT22;22054;51.646;7.078;2022-09-09T00:10:28;15.40;99.90
35613;DHT22;22054;51.646;7.078;2022-09-09T00:13:11;15.50;99.90
35613;DHT22;22054;51.646;7.078;2022-09-09T00:15:57;15.40;99.90
35613;DHT22;22054;51.646;7.078;2022-09-09T00:18:52;15.40;99.90
35613;DHT22;22054;51.646;7.078;2022-09-09T00:21:37;15.40;99.90
35613;DHT22;22054;51.646;7.078;2022-09-09T00:24:37;15.40;99.90
35613;DHT22;22054;51.646;7.078;2022-09-09T00:27:11;15.40;99.90
35613;DHT22;22054;51.646;7.078;2022-09-09T00:32:59;15.50;99.90
35613;DHT22;22054;51.646;7.078;2022-09-09T00:36:01;15.50;99.90
35613;DHT22;22054;51.646;7.078;2022-09-09T00:38:38;15.60;99.90
35613;DHT22;22054;51.646;7.078;2022-09-09T00:58:35;15.50;99.90
35613;DHT22;22054;51.646;7.078;2022-09-09T01:01:04;15.50;99.90
35613;DHT22;22054;51.646;7.078;2022-09-09T01:03:36;15.50;99.90
35613;DHT22;22054;51.646;7.078;2022-09-09T01:09:11;15.30;99.90
35613;DHT22;22054;51.646;7.078;2022-09-09T01:14:42;15.30;99.90
35613;DHT22;22054;51.646;7.078;2022-09-09T01:20:04;15.30;99.90
35613;DHT22;22054;51.646;7.078;2022-09-09T01:22:38;15.30;99.90
35613;DHT22;22054;51.646;7.078;2022-09-09T01:28:02;15.30;99.90
35613;DHT22;22054;51.646;7.078;2022-09-09T01:30:31;15.30;99.90
35613;DHT22;22054;51.646;7.078;2022-09-09T01:32:58;15.30;99.90
35613;DHT22;22054;51.646;7.078;2022-09-09T01:35:34;15.40;99.90
35613;DHT22;22054;51.646;7.078;2022-09-09T01:38:02;15.40;99.90
35613;DHT22;22054;51.646;7.078;2022-09-09T01:40:28;15.30;99.90
35613;DHT22;22054;51.646;7.078;2022-09-09T01:42:54;15.30;99.90
35613;DHT22;22054;51.646;7.078;2022-09-09T01:45:21;15.10;99.90
35613;DHT22;22054;51.646;7.078;2022-09-09T01:47:47;15.30;99.90
35613;DHT22;22054;51.646;7.078;2022-09-09T01:50:15;15.20;99.90
35613;DHT22;22054;51.646;7.078;2022-09-09T01:52:44;15.30;99.90
35613;DHT22;22054;51.646;7.078;2022-09-09T01:55:11;15.40;99.90
35613;DHT22;22054;51.646;7.078;2022-09-09T01:57:54;15.30;99.90
35613;DHT22;22054;51.646;7.078;2022-09-09T02:00:41;15.30;99.90
35613;DHT22;22054;51.646;7.078;2022-09-09T02:03:21;15.20;99.90
35613;DHT22;22054;51.646;7.078;2022-09-09T02:06:25;15.20;99.90
35613;DHT22;22054;51.646;7.078;2022-09-09T02:08:59;15.20;99.90
35613;DHT22;22054;51.646;7.078;2022-09-09T02:11:29;15.20;99.90
35613;DHT22;22054;51.646;7.078;2022-09-09T02:14:12;15.10;99.90
35613;DHT22;22054;51.646;7.078;2022-09-09T02:16:47;15.20;99.90
35613;DHT22;22054;51.646;7.078;2022-09-09T02:19:24;15.10;99.90
35613;DHT22;22054;51.646;7.078;2022-09-09T02:21:54;15.20;99.90
35613;DHT22;22054;51.646;7.078;2022-09-09T02:24:21;15.20;99.90
35613;DHT22;22054;51.646;7.078;2022-09-09T02:26:50;15.20;99.90
35613;DHT22;22054;51.646;7.078;2022-09-09T02:29:30;15.20;99.90
35613;DHT22;22054;51.646;7.078;2022-09-09T02:32:02;15.30;99.90
35613;DHT22;22054;51.646;7.078;2022-09-09T02:34:35;15.30;99.90
35613;DHT22;22054;51.646;7.078;2022-09-09T02:37:04;15.60;99.90
35613;DHT22;22054;51.646;7.078;2022-09-09T02:39:32;15.60;99.90
35613;DHT22;22054;51.646;7.078;2022-09-09T02:41:58;15.60;99.90
35613;DHT22;22054;51.646;7.078;2022-09-09T02:44:23;15.60;99.90
35613;DHT22;22054;51.646;7.078;2022-09-09T02:49:56;15.70;99.90
35613;DHT22;22054;51.646;7.078;2022-09-09T02:52:35;15.70;99.90
35613;DHT22;22054;51.646;7.078;2022-09-09T02:55:09;15.80;99.90
35613;DHT22;22054;51.646;7.078;2022-09-09T02:57:45;15.90;99.90
35613;DHT22;22054;51.646;7.078;2022-09-09T03:00:13;15.90;99.90
35613;DHT22;22054;51.646;7.078;2022-09-09T03:02:39;15.90;99.90
35613;DHT22;22054;51.646;7.078;2022-09-09T03:05:06;15.90;99.90
35613;DHT22;22054;51.646;7.078;2022-09-09T03:07:32;16.00;99.90
35613;DHT22;22054;51.646;7.078;2022-09-09T03:09:58;16.20;99.90
35613;DHT22;22054;51.646;7.078;2022-09-09T03:12:24;16.00;99.90
35613;DHT22;22054;51.646;7.078;2022-09-09T03:14:50;15.80;99.90
35613;DHT22;22054;51.646;7.078;2022-09-09T03:17:16;16.00;99.90
35613;DHT22;22054;51.646;7.078;2022-09-09T03:19:42;15.90;99.90
35613;DHT22;22054;51.646;7.078;2022-09-09T03:22:10;16.00;99.90
35613;DHT22;22054;51.646;7.078;2022-09-09T03:24:36;15.80;99.90
35613;DHT22;22054;51.646;7.078;2022-09-09T03:27:02;15.90;99.90
35613;DHT22;22054;51.646;7.078;2022-09-09T03:29:28;15.90;99.90
35613;DHT22;22054;51.646;7.078;2022-09-09T03:31:54;15.80;99.90
35613;DHT22;22054;51.646;7.078;2022-09-09T03:34:19;15.80;99.90
35613;DHT22;22054;51.646;7.078;2022-09-09T03:36:45;15.70;99.90
35613;DHT22;22054;51.646;7.078;2022-09-09T03:39:11;15.60;99.90
35613;DHT22;22054;51.646;7.078;2022-09-09T03:41:37;15.80;99.90
35613;DHT22;22054;51.646;7.078;2022-09-09T03:44:03;15.60;99.90
35613;DHT22;22054;51.646;7.078;2022-09-09T03:46:29;15.70;99.90
35613;DHT22;22054;51.646;7.078;2022-09-09T03:48:55;15.50;99.90
35613;DHT22;22054;51.646;7.078;2022-09-09T03:51:22;15.40;99.90
35613;DHT22;22054;51.646;7.078;2022-09-09T03:53:48;15.40;99.90
35613;DHT22;22054;51.646;7.078;2022-09-09T03:56:14;15.40;99.90
35613;DHT22;22054;51.646;7.078;2022-09-09T03:58:40;15.40;99.90
35613;DHT22;22054;51.646;7.078;2022-09-09T04:01:08;15.40;99.90
35613;DHT22;22054;51.646;7.078;2022-09-09T04:03:38;15.30;99.90
35613;DHT22;22054;51.646;7.078;2022-09-09T04:06:07;15.40;99.90
35613;DHT22;22054;51.646;7.078;2022-09-09T04:08:34;15.40;99.90
35613;DHT22;22054;51.646;7.078;2022-09-09T04:11:01;15.40;99.90
35613;DHT22;22054;51.646;7.078;2022-09-09T04:13:32;15.50;99.90
35613;DHT22;22054;51.646;7.078;2022-09-09T04:16:00;15.40;99.90
35613;DHT22;22054;51.646;7.078;2022-09-09T04:18:27;15.40;99.90
35613;DHT22;22054;51.646;7.078;2022-09-09T04:20:56;15.50;99.90
35613;DHT22;22054;51.646;7.078;2022-09-09T04:23:24;15.50;99.90
35613;DHT22;22054;51.646;7.078;2022-09-09T04:25:55;15.30;99.90
35613;DHT22;22054;51.646;7.078;2022-09-09T04:28:24;15.40;99.90
35613;DHT22;22054;51.646;7.078;2022-09-09T04:30:51;15.30;99.90
35613;DHT22;22054;51.646;7.078;2022-09-09T04:33:18;15.30;99.90
35613;DHT22;22054;51.646;7.078;2022-09-09T04:35:46;15.40;99.90
35613;DHT22;22054;51.646;7.078;2022-09-09T04:38:13;15.40;99.90
35613;DHT22;22054;51.646;7.078;2022-09-09T04:40:42;15.40;99.90
35613;DHT22;22054;51.646;7.078;2022-09-09T04:43:09;15.50;99.90
35613;DHT22;22054;51.646;7.078;2022-09-09T04:45:35;15.60;99.90
35613;DHT22;22054;51.646;7.078;2022-09-09T04:48:02;15.60;99.90
35613;DHT22;22054;51.646;7.078;2022-09-09T04:50:29;15.70;99.90
35613;DHT22;22054;51.646;7.078;2022-09-09T04:52:54;15.70;99.90
35613;DHT22;22054;51.646;7.078;2022-09-09T04:55:20;15.80;99.90
35613;DHT22;22054;51.646;7.078;2022-09-09T04:57:46;15.70;99.90
35613;DHT22;22054;51.646;7.078;2022-09-09T05:00:13;15.60;99.90
35613;DHT22;22054;51.646;7.078;2022-09-09T05:02:39;15.80;99.90
35613;DHT22;22054;51.646;7.078;2022-09-09T05:05:06;15.90;99.90
35613;DHT22;22054;51.646;7.078;2022-09-09T05:07:32;15.80;99.90
35613;DHT22;22054;51.646;7.078;2022-09-09T05:09:58;16.00;99.90
35613;DHT22;22054;51.646;7.078;2022-09-09T05:12:24;16.20;99.90
35613;DHT22;22054;51.646;7.078;2022-09-09T05:14:51;16.00;99.90
35613;DHT22;22054;51.646;7.078;2022-09-09T05:17:17;16.10;99.90
35613;DHT22;22054;51.646;7.078;2022-09-09T05:19:43;16.10;99.90
35613;DHT22;22054;51.646;7.078;2022-09-09T05:22:09;16.10;99.90
35613;DHT22;22054;51.646;7.078;2022-09-09T05:24:37;16.20;99.90
35613;DHT22;22054;51.646;7.078;2022-09-09T05:27:03;16.00;99.90
35613;DHT22;22054;51.646;7.078;2022-09-09T05:29:31;16.20;99.90
35613;DHT22;22054;51.646;7.078;2022-09-09T05:31:59;16.30;99.90
35613;DHT22;22054;51.646;7.078;2022-09-09T05:34:25;16.30;99.90
35613;DHT22;22054;51.646;7.078;2022-09-09T05:36:51;16.30;99.90
35613;DHT22;22054;51.646;7.078;2022-09-09T05:39:17;16.50;99.90
35613;DHT22;22054;51.646;7.078;2022-09-09T05:41:43;16.40;99.90
35613;DHT22;22054;51.646;7.078;2022-09-09T05:44:09;16.50;99.90
35613;DHT22;22054;51.646;7.078;2022-09-09T05:46:35;16.70;99.90
35613;DHT22;22054;51.646;7.078;2022-09-09T05:49:02;16.50;99.90
35613;DHT22;22054;51.646;7.078;2022-09-09T05:51:29;16.50;99.90
35613;DHT22;22054;51.646;7.078;2022-09-09T05:53:58;16.80;99.90
35613;DHT22;22054;51.646;7.078;2022-09-09T05:56:26;16.80;99.90
35613;DHT22;22054;51.646;7.078;2022-09-09T05:58:54;16.70;99.90
35613;DHT22;22054;51.646;7.078;2022-09-09T06:01:22;16.60;99.90
35613;DHT22;22054;51.646;7.078;2022-09-09T06:03:53;16.70;99.90
35613;DHT22;22054;51.646;7.078;2022-09-09T06:06:21;16.90;99.90
35613;DHT22;22054;51.646;7.078;2022-09-09T06:08:53;17.00;99.90
35613;DHT22;22054;51.646;7.078;2022-09-09T06:11:27;16.80;99.90
35613;DHT22;22054;51.646;7.078;2022-09-09T06:13:56;16.70;99.90
35613;DHT22;22054;51.646;7.078;2022-09-09T06:16:24;16.70;99.90
35613;DHT22;22054;51.646;7.078;2022-09-09T06:18:55;16.60;99.90
35613;DHT22;22054;51.646;7.078;2022-09-09T06:21:24;16.70;99.90
35613;DHT22;22054;51.646;7.078;2022-09-09T06:23:51;16.60;99.90
35613;DHT22;22054;51.646;7.078;2022-09-09T06:26:20;16.60;99.90
35613;DHT22;22054;51.646;7.078;2022-09-09T06:28:57;16.60;99.90
35613;DHT22;22054;51.646;7.078;2022-09-09T06:31:28;16.80;99.90
35613;DHT22;22054;51.646;7.078;2022-09-09T06:33:59;16.80;99.90
35613;DHT22;22054;51.646;7.078;2022-09-09T06:36:28;16.80;99.90
35613;DHT22;22054;51.646;7.078;2022-09-09T06:38:54;17.10;99.90
35613;DHT22;22054;51.646;7.078;2022-09-09T06:41:22;17.10;99.90
35613;DHT22;22054;51.646;7.078;2022-09-09T06:43:49;17.30;99.90
35613;DHT22;22054;51.646;7.078;2022-09-09T06:46:17;17.50;99.90
35613;DHT22;22054;51.646;7.078;2022-09-09T06:48:47;17.50;99.90
35613;DHT22;22054;51.646;7.078;2022-09-09T06:51:17;17.50;99.90
35613;DHT22;22054;51.646;7.078;2022-09-09T06:53:45;17.60;99.90
35613;DHT22;22054;51.646;7.078;2022-09-09T06:58:43;17.60;99.90
35613;DHT22;22054;51.646;7.078;2022-09-09T07:01:12;17.50;99.90
35613;DHT22;22054;51.646;7.078;2022-09-09T07:03:39;17.60;99.90
35613;DHT22;22054;51.646;7.078;2022-09-09T07:06:06;17.80;99.90
35613;DHT22;22054;51.646;7.078;2022-09-09T07:08:33;17.60;99.90
35613;DHT22;22054;51.646;7.078;2022-09-09T07:11:06;17.60;99.90
35613;DHT22;22054;51.646;7.078;2022-09-09T07:13:33;17.80;99.90
35613;DHT22;22054;51.646;7.078;2022-09-09T07:16:08;17.60;99.90
35613;DHT22;22054;51.646;7.078;2022-09-09T07:18:35;18.00;99.90
35613;DHT22;22054;51.646;7.078;2022-09-09T07:21:02;18.10;99.90
35613;DHT22;22054;51.646;7.078;2022-09-09T07:23:29;18.30;99.90
35613;DHT22;22054;51.646;7.078;2022-09-09T07:25:56;18.50;99.90
35613;DHT22;22054;51.646;7.078;2022-09-09T07:28:23;18.60;99.90
35613;DHT22;22054;51.646;7.078;2022-09-09T07:30:56;18.80;99.80
35613;DHT22;22054;51.646;7.078;2022-09-09T07:33:24;18.80;98.90
35613;DHT22;22054;51.646;7.078;2022-09-09T07:35:51;19.00;94.00
35613;DHT22;22054;51.646;7.078;2022-09-09T07:38:19;18.90;88.70
35613;DHT22;22054;51.646;7.078;2022-09-09T07:40:46;18.80;74.80
35613;DHT22;22054;51.646;7.078;2022-09-09T07:43:12;18.70;67.30
35613;DHT22;22054;51.646;7.078;2022-09-09T07:45:38;18.60;67.50
35613;DHT22;22054;51.646;7.078;2022-09-09T07:48:04;18.40;74.00
35613;DHT22;22054;51.646;7.078;2022-09-09T07:50:31;18.60;79.40
35613;DHT22;22054;51.646;7.078;2022-09-09T07:52:56;18.70;58.40
35613;DHT22;22054;51.646;7.078;2022-09-09T07:55:23;18.80;51.60
35613;DHT22;22054;51.646;7.078;2022-09-09T07:57:53;18.90;48.10
35613;DHT22;22054;51.646;7.078;2022-09-09T08:00:19;18.80;37.50
35613;DHT22;22054;51.646;7.078;2022-09-09T08:02:47;18.90;48.40
35613;DHT22;22054;51.646;7.078;2022-09-09T08:05:13;18.90;32.50
35613;DHT22;22054;51.646;7.078;2022-09-09T08:07:39;18.80;31.80
35613;DHT22;22054;51.646;7.078;2022-09-09T08:10:05;18.80;39.10
35613;DHT22;22054;51.646;7.078;2022-09-09T08:12:31;18.80;42.40
35613;DHT22;22054;51.646;7.078;2022-09-09T08:14:57;18.80;27.50
35613;DHT22;22054;51.646;7.078;2022-09-09T08:17:23;18.80;10.70
35613;DHT22;22054;51.646;7.078;2022-09-09T08:19:49;18.60;1.00
35613;DHT22;22054;51.646;7.078;2022-09-09T08:22:15;18.30;1.00
35613;DHT22;22054;51.646;7.078;2022-09-09T08:24:40;18.20;1.00
35613;DHT22;22054;51.646;7.078;2022-09-09T08:27:06;18.40;1.00
35613;DHT22;22054;51.646;7.078;2022-09-09T08:29:32;18.20;1.00
35613;DHT22;22054;51.646;7.078;2022-09-09T08:31:58;18.30;1.00
35613;DHT22;22054;51.646;7.078;2022-09-09T08:34:25;18.50;1.00
35613;DHT22;22054;51.646;7.078;2022-09-09T08:36:53;18.60;1.00
35613;DHT22;22054;51.646;7.078;2022-09-09T08:39:20;18.70;1.00
35613;DHT22;22054;51.646;7.078;2022-09-09T08:44:48;18.60;1.00
35613;DHT22;22054;51.646;7.078;2022-09-09T08:50:35;18.60;1.00
35613;DHT22;22054;51.646;7.078;2022-09-09T08:53:38;18.50;1.00
35613;DHT22;22054;51.646;7.078;2022-09-09T08:56:04;18.30;1.00
35613;DHT22;22054;51.646;7.078;2022-09-09T08:58:56;18.50;1.00
35613;DHT22;22054;51.646;7.078;2022-09-09T09:01:35;18.50;1.00
35613;DHT22;22054;51.646;7.078;2022-09-09T09:12:53;18.50;1.00
35613;DHT22;22054;51.646;7.078;2022-09-09T09:15:39;18.50;1.00
35613;DHT22;22054;51.646;7.078;2022-09-09T09:18:10;18.80;1.00
35613;DHT22;22054;51.646;7.078;2022-09-09T09:21:06;19.20;1.00
35613;DHT22;22054;51.646;7.078;2022-09-09T09:23:45;19.50;99.90
35613;DHT22;22054;51.646;7.078;2022-09-09T09:26:18;19.80;99.90
35613;DHT22;22054;51.646;7.078;2022-09-09T09:28:44;20.00;99.90
35613;DHT22;22054;51.646;7.078;2022-09-09T09:31:11;20.20;99.90
35613;DHT22;22054;51.646;7.078;2022-09-09T09:33:50;20.20;1.00
35613;DHT22;22054;51.646;7.078;2022-09-09T09:36:24;20.40;1.00
35613;DHT22;22054;51.646;7.078;2022-09-09T09:39:00;20.50;1.00
35613;DHT22;22054;51.646;7.078;2022-09-09T09:41:36;20.70;1.00
35613;DHT22;22054;51.646;7.078;2022-09-09T09:46:50;20.60;1.00
35613;DHT22;22054;51.646;7.078;2022-09-09T09:49:16;20.80;1.00
35613;DHT22;22054;51.646;7.078;2022-09-09T09:51:42;20.70;1.00
35613;DHT22;22054;51.646;7.078;2022-09-09T09:54:17;20.70;99.90
35613;DHT22;22054;51.646;7.078;2022-09-09T09:56:48;20.40;99.90
35613;DHT22;22054;51.646;7.078;2022-09-09T10:01:54;20.60;1.00
35613;DHT22;22054;51.646;7.078;2022-09-09T10:05:04;20.70;1.00
35613;DHT22;22054;51.646;7.078;2022-09-09T10:07:31;20.90;99.90
35613;DHT22;22054;51.646;7.078;2022-09-09T10:09:58;21.00;1.00
35613;DHT22;22054;51.646;7.078;2022-09-09T10:12:27;20.80;1.00
35613;DHT22;22054;51.646;7.078;2022-09-09T10:15:29;20.60;1.00
35613;DHT22;22054;51.646;7.078;2022-09-09T10:18:16;20.70;99.90
35613;DHT22;22054;51.646;7.078;2022-09-09T10:20:59;20.60;99.90
35613;DHT22;22054;51.646;7.078;2022-09-09T10:30:14;20.60;1.00
35613;DHT22;22054;51.646;7.078;2022-09-09T10:38:14;20.60;99.90
35613;DHT22;22054;51.646;7.078;2022-09-09T10:41:01;20.50;1.00
35613;DHT22;22054;51.646;7.078;2022-09-09T10:43:39;20.20;1.00
35613;DHT22;22054;51.646;7.078;2022-09-09T10:46:34;20.30;1.00
35613;DHT22;22054;51.646;7.078;2022-09-09T10:52:28;21.00;99.90
35613;DHT22;22054;51.646;7.078;2022-09-09T10:55:09;21.40;99.90
35613;DHT22;22054;51.646;7.078;2022-09-09T10:58:00;21.60;92.80
35613;DHT22;22054;51.646;7.078;2022-09-09T11:00:43;22.00;1.00
35613;DHT22;22054;51.646;7.078;2022-09-09T11:03:24;21.70;1.00
35613;DHT22;22054;51.646;7.078;2022-09-09T11:06:00;21.40;99.90
35613;DHT22;22054;51.646;7.078;2022-09-09T11:08:33;21.20;1.00
35613;DHT22;22054;51.646;7.078;2022-09-09T11:11:04;21.00;91.40
35613;DHT22;22054;51.646;7.078;2022-09-09T11:13:55;20.90;99.90
35613;DHT22;22054;51.646;7.078;2022-09-09T11:16:30;20.80;1.00
35613;DHT22;22054;51.646;7.078;2022-09-09T11:21:50;20.50;1.00
35613;DHT22;22054;51.646;7.078;2022-09-09T11:24:28;20.70;99.90
35613;DHT22;22054;51.646;7.078;2022-09-09T11:27:19;20.70;99.90
35613;DHT22;22054;51.646;7.078;2022-09-09T11:38:28;20.50;99.90
35613;DHT22;22054;51.646;7.078;2022-09-09T11:41:02;20.70;99.90
35613;DHT22;22054;51.646;7.078;2022-09-09T11:43:38;20.90;99.90
35613;DHT22;22054;51.646;7.078;2022-09-09T11:46:06;21.00;1.00
35613;DHT22;22054;51.646;7.078;2022-09-09T11:48:44;21.00;99.90
35613;DHT22;22054;51.646;7.078;2022-09-09T11:51:27;21.10;99.90
35613;DHT22;22054;51.646;7.078;2022-09-09T11:53:58;20.90;1.00
35613;DHT22;22054;51.646;7.078;2022-09-09T11:56:33;20.90;1.00
35613;DHT22;22054;51.646;7.078;2022-09-09T11:59:29;20.90;1.00
35613;DHT22;22054;51.646;7.078;2022-09-09T12:02:22;20.80;1.00
35613;DHT22;22054;51.646;7.078;2022-09-09T12:07:53;21.00;99.90
35613;DHT22;22054;51.646;7.078;2022-09-09T12:10:26;21.10;99.90
35613;DHT22;22054;51.646;7.078;2022-09-09T12:12:53;21.00;99.90
35613;DHT22;22054;51.646;7.078;2022-09-09T12:15:28;21.10;1.00
35613;DHT22;22054;51.646;7.078;2022-09-09T12:17:57;21.80;99.90
35613;DHT22;22054;51.646;7.078;2022-09-09T12:20:34;23.10;1.00
35613;DHT22;22054;51.646;7.078;2022-09-09T12:26:19;23.00;1.00
35613;DHT22;22054;51.646;7.078;2022-09-09T12:34:32;21.00;1.00
35613;DHT22;22054;51.646;7.078;2022-09-09T12:39:56;21.60;1.00
35613;DHT22;22054;51.646;7.078;2022-09-09T12:42:25;22.70;23.10
35613;DHT22;22054;51.646;7.078;2022-09-09T12:44:56;23.90;1.00
35613;DHT22;22054;51.646;7.078;2022-09-09T12:48:27;23.90;61.30
35613;DHT22;22054;51.646;7.078;2022-09-09T12:50:27;23.40;1.00
35613;DHT22;22054;51.646;7.078;2022-09-09T12:52:57;22.60;95.60
35613;DHT22;22054;51.646;7.078;2022-09-09T12:55:28;22.00;99.90
35613;DHT22;22054;51.646;7.078;2022-09-09T12:57:57;21.60;92.30
35613;DHT22;22054;51.646;7.078;2022-09-09T13:00:25;21.40;1.00
35613;DHT22;22054;51.646;7.078;2022-09-09T13:02:56;21.20;99.90
35613;DHT22;22054;51.646;7.078;2022-09-09T13:05:26;21.00;99.90
35613;DHT22;22054;51.646;7.078;2022-09-09T13:08:04;21.00;99.90
35613;DHT22;22054;51.646;7.078;2022-09-09T13:10:35;20.80;99.90
35613;DHT22;22054;51.646;7.078;2022-09-09T13:13:04;20.60;99.90
35613;DHT22;22054;51.646;7.078;2022-09-09T13:15:52;20.00;1.00
35613;DHT22;22054;51.646;7.078;2022-09-09T13:18:22;18.60;25.80
35613;DHT22;22054;51.646;7.078;2022-09-09T13:20:50;17.70;99.90
35613;DHT22;22054;51.646;7.078;2022-09-09T13:23:18;17.10;99.90
35613;DHT22;22054;51.646;7.078;2022-09-09T13:25:56;16.90;99.90
35613;DHT22;22054;51.646;7.078;2022-09-09T13:28:25;16.80;99.90
35613;DHT22;22054;51.646;7.078;2022-09-09T13:31:04;16.70;99.90
35613;DHT22;22054;51.646;7.078;2022-09-09T13:33:36;16.70;99.90
35613;DHT22;22054;51.646;7.078;2022-09-09T13:38:37;16.70;99.90
35613;DHT22;22054;51.646;7.078;2022-09-09T13:41:08;16.90;99.90
35613;DHT22;22054;51.646;7.078;2022-09-09T13:43:46;16.60;99.90
35613;DHT22;22054;51.646;7.078;2022-09-09T13:46:33;16.60;99.90
35613;DHT22;22054;51.646;7.078;2022-09-09T13:51:37;16.60;99.90
35613;DHT22;22054;51.646;7.078;2022-09-09T13:54:08;17.00;99.90
35613;DHT22;22054;51.646;7.078;2022-09-09T13:56:37;17.10;99.90
35613;DHT22;22054;51.646;7.078;2022-09-09T13:59:05;17.30;99.90
35613;DHT22;22054;51.646;7.078;2022-09-09T14:01:34;17.60;99.90
35613;DHT22;22054;51.646;7.078;2022-09-09T14:04:01;18.60;99.90
35613;DHT22;22054;51.646;7.078;2022-09-09T14:06:27;19.80;99.90
35613;DHT22;22054;51.646;7.078;2022-09-09T14:08:54;20.00;95.40
35613;DHT22;22054;51.646;7.078;2022-09-09T14:11:21;19.70;97.40
35613;DHT22;22054;51.646;7.078;2022-09-09T14:13:47;19.80;99.90
35613;DHT22;22054;51.646;7.078;2022-09-09T14:16:16;20.10;99.90
35613;DHT22;22054;51.646;7.078;2022-09-09T14:18:43;20.60;99.90
35613;DHT22;22054;51.646;7.078;2022-09-09T14:21:11;22.10;99.90
35613;DHT22;22054;51.646;7.078;2022-09-09T14:23:37;23.40;9.80
35613;DHT22;22054;51.646;7.078;2022-09-09T14:26:07;24.60;1.00
35613;DHT22;22054;51.646;7.078;2022-09-09T14:28:34;26.00;1.00
35613;DHT22;22054;51.646;7.078;2022-09-09T14:31:02;27.10;99.90
35613;DHT22;22054;51.646;7.078;2022-09-09T14:33:29;28.70;1.00
35613;DHT22;22054;51.646;7.078;2022-09-09T14:36:03;29.70;1.00
35613;DHT22;22054;51.646;7.078;2022-09-09T14:38:31;30.50;1.00
35613;DHT22;22054;51.646;7.078;2022-09-09T14:40:59;31.30;1.00
35613;DHT22;22054;51.646;7.078;2022-09-09T14:43:27;31.10;1.00
35613;DHT22;22054;51.646;7.078;2022-09-09T14:45:53;30.40;1.00
35613;DHT22;22054;51.646;7.078;2022-09-09T14:48:19;28.70;1.00
35613;DHT22;22054;51.646;7.078;2022-09-09T14:50:44;27.10;99.90
35613;DHT22;22054;51.646;7.078;2022-09-09T14:53:10;25.30;99.90
35613;DHT22;22054;51.646;7.078;2022-09-09T14:55:37;24.50;1.00
35613;DHT22;22054;51.646;7.078;2022-09-09T14:58:03;23.80;99.90
35613;DHT22;22054;51.646;7.078;2022-09-09T15:00:29;23.30;99.90
35613;DHT22;22054;51.646;7.078;2022-09-09T15:02:55;22.50;1.00
35613;DHT22;22054;51.646;7.078;2022-09-09T15:05:21;21.80;1.00
35613;DHT22;22054;51.646;7.078;2022-09-09T15:07:47;21.20;1.00
35613;DHT22;22054;51.646;7.078;2022-09-09T15:10:16;20.80;1.00
35613;DHT22;22054;51.646;7.078;2022-09-09T15:12:42;20.50;1.00
35613;DHT22;22054;51.646;7.078;2022-09-09T15:15:09;20.10;15.50
35613;DHT22;22054;51.646;7.078;2022-09-09T15:17:36;19.70;92.20
35613;DHT22;22054;51.646;7.078;2022-09-09T15:20:03;19.30;80.40
35613;DHT22;22054;51.646;7.078;2022-09-09T15:22:31;18.40;99.90
35613;DHT22;22054;51.646;7.078;2022-09-09T15:24:57;17.90;99.90
35613;DHT22;22054;51.646;7.078;2022-09-09T15:27:23;17.60;99.90
35613;DHT22;22054;51.646;7.078;2022-09-09T15:29:49;17.10;99.90
35613;DHT22;22054;51.646;7.078;2022-09-09T15:32:17;16.80;99.90
35613;DHT22;22054;51.646;7.078;2022-09-09T15:34:43;16.40;99.90
35613;DHT22;22054;51.646;7.078;2022-09-09T15:37:12;16.20;99.90
35613;DHT22;22054;51.646;7.078;2022-09-09T15:39:40;16.20;99.90
35613;DHT22;22054;51.646;7.078;2022-09-09T15:42:06;16.20;99.90
35613;DHT22;22054;51.646;7.078;2022-09-09T15:44:41;16.20;99.90
35613;DHT22;22054;51.646;7.078;2022-09-09T15:47:11;16.30;99.90
35613;DHT22;22054;51.646;7.078;2022-09-09T15:49:40;16.40;99.90
35613;DHT22;22054;51.646;7.078;2022-09-09T15:52:06;16.70;99.90
35613;DHT22;22054;51.646;7.078;2022-09-09T15:54:35;16.70;99.90
35613;DHT22;22054;51.646;7.078;2022-09-09T15:57:05;16.70;99.90
35613;DHT22;22054;51.646;7.078;2022-09-09T15:59:34;16.70;99.90
35613;DHT22;22054;51.646;7.078;2022-09-09T16:02:00;16.70;99.90
35613;DHT22;22054;51.646;7.078;2022-09-09T16:04:27;16.50;99.90
35613;DHT22;22054;51.646;7.078;2022-09-09T16:06:56;16.50;99.90
35613;DHT22;22054;51.646;7.078;2022-09-09T16:09:24;16.40;99.90
35613;DHT22;22054;51.646;7.078;2022-09-09T16:11:50;16.60;99.90
35613;DHT22;22054;51.646;7.078;2022-09-09T16:14:16;16.70;99.90
35613;DHT22;22054;51.646;7.078;2022-09-09T16:16:42;16.70;99.90
35613;DHT22;22054;51.646;7.078;2022-09-09T16:19:10;16.80;99.90
35613;DHT22;22054;51.646;7.078;2022-09-09T16:21:41;17.00;99.90
35613;DHT22;22054;51.646;7.078;2022-09-09T16:24:10;17.10;99.90
35613;DHT22;22054;51.646;7.078;2022-09-09T16:26:40;17.40;99.90
35613;DHT22;22054;51.646;7.078;2022-09-09T16:29:16;17.60;99.90
35613;DHT22;22054;51.646;7.078;2022-09-09T16:31:53;17.80;99.90
35613;DHT22;22054;51.646;7.078;2022-09-09T16:34:20;18.20;99.90
35613;DHT22;22054;51.646;7.078;2022-09-09T16:36:47;18.20;99.90
35613;DHT22;22054;51.646;7.078;2022-09-09T16:39:16;18.30;99.90
35613;DHT22;22054;51.646;7.078;2022-09-09T16:41:44;18.30;99.90
35613;DHT22;22054;51.646;7.078;2022-09-09T16:44:13;18.40;99.90
35613;DHT22;22054;51.646;7.078;2022-09-09T16:46:42;18.20;99.90
35613;DHT22;22054;51.646;7.078;2022-09-09T16:49:11;17.90;99.90
35613;DHT22;22054;51.646;7.078;2022-09-09T16:51:43;17.80;99.90
35613;DHT22;22054;51.646;7.078;2022-09-09T16:54:15;17.60;99.90
35613;DHT22;22054;51.646;7.078;2022-09-09T16:56:44;17.90;99.90
35613;DHT22;22054;51.646;7.078;2022-09-09T16:59:19;17.60;99.90
35613;DHT22;22054;51.646;7.078;2022-09-09T17:01:48;17.60;99.90
35613;DHT22;22054;51.646;7.078;2022-09-09T17:04:16;17.50;99.90
35613;DHT22;22054;51.646;7.078;2022-09-09T17:06:47;17.50;99.90
35613;DHT22;22054;51.646;7.078;2022-09-09T17:09:17;17.40;99.90
35613;DHT22;22054;51.646;7.078;2022-09-09T17:11:43;17.30;99.90
35613;DHT22;22054;51.646;7.078;2022-09-09T17:14:14;17.30;99.90
35613;DHT22;22054;51.646;7.078;2022-09-09T17:16:42;17.30;99.90
35613;DHT22;22054;51.646;7.078;2022-09-09T17:19:08;17.40;99.90
35613;DHT22;22054;51.646;7.078;2022-09-09T17:21:35;17.10;99.90
35613;DHT22;22054;51.646;7.078;2022-09-09T17:24:01;17.00;99.90
35613;DHT22;22054;51.646;7.078;2022-09-09T17:26:29;17.00;99.90
35613;DHT22;22054;51.646;7.078;2022-09-09T17:28:57;16.80;99.90
35613;DHT22;22054;51.646;7.078;2022-09-09T17:31:24;16.70;99.90
35613;DHT22;22054;51.646;7.078;2022-09-09T17:33:51;16.80;99.90
35613;DHT22;22054;51.646;7.078;2022-09-09T17:36:23;16.80;99.90
35613;DHT22;22054;51.646;7.078;2022-09-09T17:38:53;16.60;99.90
35613;DHT22;22054;51.646;7.078;2022-09-09T17:41:30;16.70;99.90